sensor_id;sensor_type;location;lat;lon;timestamp;pressure;altitude;pressure_sealevel;temperature;humidity
62849;BME280;48941;49.516;8.286;2023-04-16T00:01:38;100473.66;;;9.39;90.47
62849;BME280;48941;49.516;8.286;2023-04-16T00:04:06;100472.31;;;9.33;90.54
62849;BME280;48941;49.516;8.286;2023-04-16T00:06:34;100471.94;;;9.27;90.89
62849;BME280;48941;49.516;8.286;2023-04-16T00:09:02;100468.91;;;9.31;90.98
62849;BME280;48941;49.516;8.286;2023-04-16T00:11:30;100471.78;;;9.28;91.13
62849;BME280;48941;49.516;8.286;2023-04-16T00:13:58;100471.22;;;9.36;90.42
62849;BME280;48941;49.516;8.286;2023-04-16T00:16:26;100466.66;;;9.38;89.77
62849;BME280;48941;49.516;8.286;2023-04-16T00:18:55;100464.44;;;9.32;90.38
62849;BME280;48941;49.516;8.286;2023-04-16T00:21:23;100472.75;;;9.27;90.42
62849;BME280;48941;49.516;8.286;2023-04-16T00:23:51;100471.28;;;9.23;90.69
62849;BME280;48941;49.516;8.286;2023-04-16T00:26:19;100465.13;;;9.23;90.68
62849;BME280;48941;49.516;8.286;2023-04-16T00:28:47;100470.09;;;9.27;91.20
62849;BME280;48941;49.516;8.286;2023-04-16T00:31:15;100468.63;;;9.23;91.08
62849;BME280;48941;49.516;8.286;2023-04-16T00:33:42;100468.94;;;9.18;91.13
62849;BME280;48941;49.516;8.286;2023-04-16T00:36:11;100468.94;;;9.18;90.93
62849;BME280;48941;49.516;8.286;2023-04-16T00:38:39;100474.16;;;9.20;91.29
62849;BME280;48941;49.516;8.286;2023-04-16T00:41:07;100467.91;;;9.21;90.82
62849;BME280;48941;49.516;8.286;2023-04-16T00:43:34;100473.72;;;9.26;90.72
62849;BME280;48941;49.516;8.286;2023-04-16T00:46:03;100478.19;;;9.26;90.40
62849;BME280;48941;49.516;8.286;2023-04-16T00:48:32;100483.00;;;9.21;90.80
62849;BME280;48941;49.516;8.286;2023-04-16T00:51:00;100491.94;;;9.20;90.84
62849;BME280;48941;49.516;8.286;2023-04-16T00:53:29;100486.41;;;9.23;90.66
62849;BME280;48941;49.516;8.286;2023-04-16T00:55:57;100491.19;;;9.17;91.09
62849;BME280;48941;49.516;8.286;2023-04-16T00:58:25;100485.53;;;9.22;91.31
62849;BME280;48941;49.516;8.286;2023-04-16T01:00:53;100493.09;;;9.15;91.49
62849;BME280;48941;49.516;8.286;2023-04-16T01:03:21;100489.91;;;9.10;91.67
62849;BME280;48941;49.516;8.286;2023-04-16T01:05:50;100484.84;;;9.07;91.87
62849;BME280;48941;49.516;8.286;2023-04-16T01:08:21;100482.09;;;9.09;91.92
62849;BME280;48941;49.516;8.286;2023-04-16T01:10:50;100492.19;;;9.04;92.31
62849;BME280;48941;49.516;8.286;2023-04-16T01:13:17;100484.28;;;9.15;91.09
62849;BME280;48941;49.516;8.286;2023-04-16T01:15:45;100496.94;;;9.11;91.45
62849;BME280;48941;49.516;8.286;2023-04-16T01:18:14;100490.34;;;9.17;91.36
62849;BME280;48941;49.516;8.286;2023-04-16T01:20:43;100489.59;;;9.15;91.17
62849;BME280;48941;49.516;8.286;2023-04-16T01:23:10;100493.22;;;9.14;91.41
62849;BME280;48941;49.516;8.286;2023-04-16T01:25:38;100494.28;;;9.11;91.52
62849;BME280;48941;49.516;8.286;2023-04-16T01:28:06;100501.28;;;9.12;91.47
62849;BME280;48941;49.516;8.286;2023-04-16T01:30:34;100504.06;;;9.11;91.37
62849;BME280;48941;49.516;8.286;2023-04-16T01:33:02;100503.44;;;9.07;91.54
62849;BME280;48941;49.516;8.286;2023-04-16T01:35:29;100503.94;;;9.12;91.46
62849;BME280;48941;49.516;8.286;2023-04-16T01:37:58;100506.50;;;9.14;91.43
62849;BME280;48941;49.516;8.286;2023-04-16T01:40:26;100499.91;;;9.20;91.46
62849;BME280;48941;49.516;8.286;2023-04-16T01:42:54;100502.91;;;9.15;90.92
62849;BME280;48941;49.516;8.286;2023-04-16T01:45:22;100504.38;;;9.06;91.31
62849;BME280;48941;49.516;8.286;2023-04-16T01:47:50;100496.66;;;9.03;91.73
62849;BME280;48941;49.516;8.286;2023-04-16T01:50:18;100509.59;;;9.08;91.40
62849;BME280;48941;49.516;8.286;2023-04-16T01:52:46;100511.75;;;9.03;91.54
62849;BME280;48941;49.516;8.286;2023-04-16T01:55:15;100514.91;;;9.08;91.37
62849;BME280;48941;49.516;8.286;2023-04-16T01:57:43;100507.50;;;9.00;91.63
62849;BME280;48941;49.516;8.286;2023-04-16T02:00:11;100505.56;;;9.02;91.47
62849;BME280;48941;49.516;8.286;2023-04-16T02:02:38;100509.09;;;9.03;91.05
62849;BME280;48941;49.516;8.286;2023-04-16T02:05:07;100510.88;;;9.02;91.33
62849;BME280;48941;49.516;8.286;2023-04-16T02:07:34;100513.44;;;9.04;91.17
62849;BME280;48941;49.516;8.286;2023-04-16T02:10:02;100522.38;;;9.03;91.33
62849;BME280;48941;49.516;8.286;2023-04-16T02:12:32;100521.41;;;9.04;91.13
62849;BME280;48941;49.516;8.286;2023-04-16T02:14:59;100525.44;;;9.09;90.71
62849;BME280;48941;49.516;8.286;2023-04-16T02:17:27;100526.81;;;9.15;90.58
62849;BME280;48941;49.516;8.286;2023-04-16T02:19:55;100520.88;;;9.11;91.38
62849;BME280;48941;49.516;8.286;2023-04-16T02:22:23;100523.22;;;9.03;91.64
62849;BME280;48941;49.516;8.286;2023-04-16T02:24:50;100519.94;;;9.00;91.40
62849;BME280;48941;49.516;8.286;2023-04-16T02:27:18;100522.59;;;9.00;91.86
62849;BME280;48941;49.516;8.286;2023-04-16T02:29:47;100524.69;;;9.07;91.25
62849;BME280;48941;49.516;8.286;2023-04-16T02:32:15;100528.31;;;9.06;91.47
62849;BME280;48941;49.516;8.286;2023-04-16T02:34:43;100530.22;;;9.04;91.81
62849;BME280;48941;49.516;8.286;2023-04-16T02:37:11;100531.63;;;8.97;92.43
62849;BME280;48941;49.516;8.286;2023-04-16T02:39:40;100526.63;;;8.92;92.40
62849;BME280;48941;49.516;8.286;2023-04-16T02:42:09;100526.88;;;8.89;92.80
62849;BME280;48941;49.516;8.286;2023-04-16T02:44:36;100528.00;;;8.98;92.31
62849;BME280;48941;49.516;8.286;2023-04-16T02:47:06;100535.78;;;9.01;92.34
62849;BME280;48941;49.516;8.286;2023-04-16T02:49:34;100522.69;;;8.98;91.98
62849;BME280;48941;49.516;8.286;2023-04-16T02:52:02;100527.81;;;9.01;91.95
62849;BME280;48941;49.516;8.286;2023-04-16T02:54:30;100533.03;;;8.90;92.39
62849;BME280;48941;49.516;8.286;2023-04-16T02:56:57;100531.72;;;8.95;92.25
62849;BME280;48941;49.516;8.286;2023-04-16T02:59:25;100529.72;;;8.86;93.17
62849;BME280;48941;49.516;8.286;2023-04-16T03:01:52;100527.31;;;8.83;92.86
62849;BME280;48941;49.516;8.286;2023-04-16T03:04:22;100533.25;;;8.87;92.67
62849;BME280;48941;49.516;8.286;2023-04-16T03:06:50;100542.25;;;8.84;93.12
62849;BME280;48941;49.516;8.286;2023-04-16T03:09:17;100540.97;;;8.90;92.54
62849;BME280;48941;49.516;8.286;2023-04-16T03:11:45;100533.66;;;8.93;92.71
62849;BME280;48941;49.516;8.286;2023-04-16T03:14:13;100542.06;;;8.87;92.74
62849;BME280;48941;49.516;8.286;2023-04-16T03:16:40;100546.41;;;8.88;93.05
62849;BME280;48941;49.516;8.286;2023-04-16T03:19:08;100544.28;;;8.93;93.12
62849;BME280;48941;49.516;8.286;2023-04-16T03:21:37;100534.84;;;8.89;92.76
62849;BME280;48941;49.516;8.286;2023-04-16T03:24:05;100543.13;;;8.85;93.61
62849;BME280;48941;49.516;8.286;2023-04-16T03:26:33;100539.94;;;8.80;93.99
62849;BME280;48941;49.516;8.286;2023-04-16T03:29:01;100544.50;;;8.77;94.22
62849;BME280;48941;49.516;8.286;2023-04-16T03:31:29;100544.41;;;8.79;94.04
62849;BME280;48941;49.516;8.286;2023-04-16T03:33:57;100556.19;;;8.88;93.31
62849;BME280;48941;49.516;8.286;2023-04-16T03:36:24;100555.44;;;8.86;93.94
62849;BME280;48941;49.516;8.286;2023-04-16T03:38:53;100558.44;;;8.81;93.89
62849;BME280;48941;49.516;8.286;2023-04-16T03:41:21;100556.72;;;8.80;94.34
62849;BME280;48941;49.516;8.286;2023-04-16T03:43:49;100557.47;;;8.82;94.15
62849;BME280;48941;49.516;8.286;2023-04-16T03:46:17;100559.47;;;8.78;94.10
62849;BME280;48941;49.516;8.286;2023-04-16T03:48:44;100563.94;;;8.78;94.63
62849;BME280;48941;49.516;8.286;2023-04-16T03:51:12;100565.75;;;8.77;94.42
62849;BME280;48941;49.516;8.286;2023-04-16T03:53:40;100565.00;;;8.75;95.06
62849;BME280;48941;49.516;8.286;2023-04-16T03:56:09;100564.78;;;8.78;94.56
62849;BME280;48941;49.516;8.286;2023-04-16T03:58:36;100573.19;;;8.72;94.95
62849;BME280;48941;49.516;8.286;2023-04-16T04:01:04;100572.00;;;8.76;94.46
62849;BME280;48941;49.516;8.286;2023-04-16T04:03:32;100572.25;;;8.73;94.74
62849;BME280;48941;49.516;8.286;2023-04-16T04:06:00;100568.31;;;8.79;94.63
62849;BME280;48941;49.516;8.286;2023-04-16T04:08:28;100571.63;;;8.83;93.95
62849;BME280;48941;49.516;8.286;2023-04-16T04:10:55;100566.59;;;8.78;94.12
62849;BME280;48941;49.516;8.286;2023-04-16T04:13:24;100567.88;;;8.85;93.46
62849;BME280;48941;49.516;8.286;2023-04-16T04:15:52;100567.34;;;8.80;93.51
62849;BME280;48941;49.516;8.286;2023-04-16T04:18:20;100569.25;;;8.78;93.50
62849;BME280;48941;49.516;8.286;2023-04-16T04:20:48;100572.75;;;8.78;93.43
62849;BME280;48941;49.516;8.286;2023-04-16T04:23:15;100577.13;;;8.80;92.94
62849;BME280;48941;49.516;8.286;2023-04-16T04:25:43;100578.94;;;8.79;92.84
62849;BME280;48941;49.516;8.286;2023-04-16T04:28:11;100574.47;;;8.80;92.63
62849;BME280;48941;49.516;8.286;2023-04-16T04:30:40;100575.22;;;8.82;92.12
62849;BME280;48941;49.516;8.286;2023-04-16T04:33:08;100579.88;;;8.78;91.96
62849;BME280;48941;49.516;8.286;2023-04-16T04:35:36;100577.03;;;8.81;92.40
62849;BME280;48941;49.516;8.286;2023-04-16T04:38:04;100570.75;;;8.82;92.11
62849;BME280;48941;49.516;8.286;2023-04-16T04:40:32;100578.06;;;8.78;92.25
62849;BME280;48941;49.516;8.286;2023-04-16T04:42:59;100574.38;;;8.81;91.75
62849;BME280;48941;49.516;8.286;2023-04-16T04:45:27;100584.34;;;8.77;91.95
62849;BME280;48941;49.516;8.286;2023-04-16T04:47:58;100585.41;;;8.75;91.97
62849;BME280;48941;49.516;8.286;2023-04-16T04:50:26;100599.00;;;8.83;91.56
62849;BME280;48941;49.516;8.286;2023-04-16T04:52:54;100594.53;;;8.84;91.40
62849;BME280;48941;49.516;8.286;2023-04-16T04:55:22;100599.84;;;8.84;91.35
62849;BME280;48941;49.516;8.286;2023-04-16T04:57:49;100604.97;;;8.87;91.22
62849;BME280;48941;49.516;8.286;2023-04-16T05:00:17;100601.34;;;8.88;91.24
62849;BME280;48941;49.516;8.286;2023-04-16T05:02:45;100608.56;;;8.86;91.61
62849;BME280;48941;49.516;8.286;2023-04-16T05:05:15;100607.72;;;8.85;91.44
62849;BME280;48941;49.516;8.286;2023-04-16T05:07:44;100609.41;;;8.86;91.34
62849;BME280;48941;49.516;8.286;2023-04-16T05:10:12;100619.09;;;8.87;91.30
62849;BME280;48941;49.516;8.286;2023-04-16T05:12:40;100616.63;;;8.84;90.97
62849;BME280;48941;49.516;8.286;2023-04-16T05:15:08;100619.59;;;8.92;90.67
62849;BME280;48941;49.516;8.286;2023-04-16T05:17:36;100628.75;;;8.88;91.09
62849;BME280;48941;49.516;8.286;2023-04-16T05:20:05;100625.47;;;8.97;90.40
62849;BME280;48941;49.516;8.286;2023-04-16T05:22:35;100632.47;;;8.98;90.33
62849;BME280;48941;49.516;8.286;2023-04-16T05:25:03;100637.34;;;8.92;90.48
62849;BME280;48941;49.516;8.286;2023-04-16T05:27:31;100632.13;;;8.90;90.78
62849;BME280;48941;49.516;8.286;2023-04-16T05:29:58;100630.97;;;8.94;90.19
62849;BME280;48941;49.516;8.286;2023-04-16T05:32:26;100633.63;;;8.94;90.25
62849;BME280;48941;49.516;8.286;2023-04-16T05:34:54;100641.19;;;9.01;90.06
62849;BME280;48941;49.516;8.286;2023-04-16T05:37:21;100649.47;;;8.96;90.15
62849;BME280;48941;49.516;8.286;2023-04-16T05:39:50;100647.13;;;9.04;89.74
62849;BME280;48941;49.516;8.286;2023-04-16T05:42:18;100642.97;;;9.00;90.04
62849;BME280;48941;49.516;8.286;2023-04-16T05:44:46;100657.88;;;9.03;89.90
62849;BME280;48941;49.516;8.286;2023-04-16T05:47:14;100647.34;;;9.01;89.74
62849;BME280;48941;49.516;8.286;2023-04-16T05:49:42;100658.50;;;9.06;89.96
62849;BME280;48941;49.516;8.286;2023-04-16T05:52:10;100659.25;;;9.08;89.43
62849;BME280;48941;49.516;8.286;2023-04-16T05:54:38;100663.63;;;9.09;88.78
62849;BME280;48941;49.516;8.286;2023-04-16T05:57:08;100669.78;;;9.10;88.98
62849;BME280;48941;49.516;8.286;2023-04-16T05:59:36;100667.94;;;9.10;88.73
62849;BME280;48941;49.516;8.286;2023-04-16T06:02:04;100664.44;;;9.10;88.95
62849;BME280;48941;49.516;8.286;2023-04-16T06:04:31;100667.84;;;9.12;89.11
62849;BME280;48941;49.516;8.286;2023-04-16T06:07:01;100671.47;;;9.11;89.06
62849;BME280;48941;49.516;8.286;2023-04-16T06:09:28;100666.91;;;9.13;89.13
62849;BME280;48941;49.516;8.286;2023-04-16T06:11:56;100676.38;;;9.17;89.05
62849;BME280;48941;49.516;8.286;2023-04-16T06:14:25;100667.53;;;9.16;89.32
62849;BME280;48941;49.516;8.286;2023-04-16T06:16:53;100663.81;;;9.19;88.77
62849;BME280;48941;49.516;8.286;2023-04-16T06:19:21;100675.19;;;9.21;88.52
62849;BME280;48941;49.516;8.286;2023-04-16T06:21:49;100667.97;;;9.23;89.13
62849;BME280;48941;49.516;8.286;2023-04-16T06:24:18;100684.75;;;9.24;88.96
62849;BME280;48941;49.516;8.286;2023-04-16T06:26:46;100673.78;;;9.28;88.74
62849;BME280;48941;49.516;8.286;2023-04-16T06:29:13;100678.16;;;9.29;88.78
62849;BME280;48941;49.516;8.286;2023-04-16T06:31:43;100684.56;;;9.27;88.62
62849;BME280;48941;49.516;8.286;2023-04-16T06:34:10;100684.97;;;9.33;88.07
62849;BME280;48941;49.516;8.286;2023-04-16T06:36:38;100693.78;;;9.34;88.26
62849;BME280;48941;49.516;8.286;2023-04-16T06:39:06;100683.16;;;9.34;88.32
62849;BME280;48941;49.516;8.286;2023-04-16T06:41:34;100696.97;;;9.39;87.80
62849;BME280;48941;49.516;8.286;2023-04-16T06:44:02;100691.88;;;9.36;87.84
62849;BME280;48941;49.516;8.286;2023-04-16T06:46:30;100699.00;;;9.35;87.98
62849;BME280;48941;49.516;8.286;2023-04-16T06:48:59;100699.00;;;9.35;88.77
62849;BME280;48941;49.516;8.286;2023-04-16T06:51:27;100701.84;;;9.32;88.70
62849;BME280;48941;49.516;8.286;2023-04-16T06:53:55;100694.41;;;9.37;88.43
62849;BME280;48941;49.516;8.286;2023-04-16T06:56:23;100696.75;;;9.42;87.87
62849;BME280;48941;49.516;8.286;2023-04-16T06:58:51;100694.41;;;9.37;88.79
62849;BME280;48941;49.516;8.286;2023-04-16T07:01:18;100703.13;;;9.40;88.39
62849;BME280;48941;49.516;8.286;2023-04-16T07:03:46;100689.00;;;9.39;88.80
62849;BME280;48941;49.516;8.286;2023-04-16T07:06:16;100702.41;;;9.37;88.87
62849;BME280;48941;49.516;8.286;2023-04-16T07:08:43;100703.25;;;9.38;88.84
62849;BME280;48941;49.516;8.286;2023-04-16T07:11:11;100691.66;;;9.39;89.08
62849;BME280;48941;49.516;8.286;2023-04-16T07:13:39;100697.38;;;9.46;88.56
62849;BME280;48941;49.516;8.286;2023-04-16T07:16:07;100696.09;;;9.51;88.10
62849;BME280;48941;49.516;8.286;2023-04-16T07:18:36;100695.03;;;9.54;88.12
62849;BME280;48941;49.516;8.286;2023-04-16T07:21:04;100703.31;;;9.62;88.14
62849;BME280;48941;49.516;8.286;2023-04-16T07:23:33;100695.34;;;9.62;88.22
62849;BME280;48941;49.516;8.286;2023-04-16T07:26:01;100698.97;;;9.61;88.10
62849;BME280;48941;49.516;8.286;2023-04-16T07:28:29;100704.06;;;9.64;87.98
62849;BME280;48941;49.516;8.286;2023-04-16T07:30:57;100707.25;;;9.69;88.25
62849;BME280;48941;49.516;8.286;2023-04-16T07:33:25;100697.25;;;9.73;87.86
62849;BME280;48941;49.516;8.286;2023-04-16T07:35:52;100713.59;;;9.80;86.87
62849;BME280;48941;49.516;8.286;2023-04-16T07:38:20;100711.25;;;9.88;85.23
62849;BME280;48941;49.516;8.286;2023-04-16T07:40:49;100713.56;;;9.92;85.42
62849;BME280;48941;49.516;8.286;2023-04-16T07:43:17;100711.59;;;9.83;86.16
62849;BME280;48941;49.516;8.286;2023-04-16T07:45:45;100715.31;;;9.81;86.30
62849;BME280;48941;49.516;8.286;2023-04-16T07:48:12;100710.09;;;9.79;86.05
62849;BME280;48941;49.516;8.286;2023-04-16T07:50:40;100723.59;;;9.76;86.24
62849;BME280;48941;49.516;8.286;2023-04-16T07:53:09;100719.66;;;9.82;86.66
62849;BME280;48941;49.516;8.286;2023-04-16T07:55:36;100715.63;;;9.76;86.74
62849;BME280;48941;49.516;8.286;2023-04-16T07:58:05;100718.53;;;9.73;87.39
62849;BME280;48941;49.516;8.286;2023-04-16T08:00:35;100725.97;;;9.81;88.01
62849;BME280;48941;49.516;8.286;2023-04-16T08:03:02;100722.22;;;9.83;87.46
62849;BME280;48941;49.516;8.286;2023-04-16T08:05:30;100729.97;;;9.86;86.68
62849;BME280;48941;49.516;8.286;2023-04-16T08:07:58;100729.47;;;9.81;87.24
62849;BME280;48941;49.516;8.286;2023-04-16T08:10:26;100735.13;;;9.76;86.64
62849;BME280;48941;49.516;8.286;2023-04-16T08:12:54;100732.66;;;9.73;86.96
62849;BME280;48941;49.516;8.286;2023-04-16T08:15:23;100739.47;;;9.77;86.79
62849;BME280;48941;49.516;8.286;2023-04-16T08:17:51;100736.25;;;9.85;86.55
62849;BME280;48941;49.516;8.286;2023-04-16T08:20:19;100738.09;;;9.85;86.29
62849;BME280;48941;49.516;8.286;2023-04-16T08:22:47;100737.75;;;9.89;86.61
62849;BME280;48941;49.516;8.286;2023-04-16T08:25:15;100737.31;;;9.95;85.39
62849;BME280;48941;49.516;8.286;2023-04-16T08:27:42;100740.59;;;9.99;84.85
62849;BME280;48941;49.516;8.286;2023-04-16T08:30:10;100742.06;;;10.03;85.38
62849;BME280;48941;49.516;8.286;2023-04-16T08:32:40;100750.25;;;10.13;84.50
62849;BME280;48941;49.516;8.286;2023-04-16T08:35:08;100750.56;;;10.08;85.07
62849;BME280;48941;49.516;8.286;2023-04-16T08:37:36;100757.34;;;10.12;84.72
62849;BME280;48941;49.516;8.286;2023-04-16T08:40:05;100753.53;;;10.16;84.09
62849;BME280;48941;49.516;8.286;2023-04-16T08:42:40;100755.13;;;10.19;84.38
62849;BME280;48941;49.516;8.286;2023-04-16T08:45:13;100753.31;;;10.20;84.50
62849;BME280;48941;49.516;8.286;2023-04-16T08:47:45;100762.13;;;10.20;85.14
62849;BME280;48941;49.516;8.286;2023-04-16T08:50:14;100760.72;;;10.27;85.66
62849;BME280;48941;49.516;8.286;2023-04-16T08:52:45;100768.63;;;10.29;86.17
62849;BME280;48941;49.516;8.286;2023-04-16T08:55:18;100767.66;;;10.30;87.43
62849;BME280;48941;49.516;8.286;2023-04-16T08:57:50;100769.56;;;10.28;87.73
62849;BME280;48941;49.516;8.286;2023-04-16T09:00:19;100769.06;;;10.23;88.59
62849;BME280;48941;49.516;8.286;2023-04-16T09:02:49;100774.84;;;10.16;89.35
62849;BME280;48941;49.516;8.286;2023-04-16T09:05:18;100778.88;;;10.09;91.06
62849;BME280;48941;49.516;8.286;2023-04-16T09:07:51;100778.25;;;10.06;91.23
62849;BME280;48941;49.516;8.286;2023-04-16T09:10:20;100778.59;;;10.01;91.93
62849;BME280;48941;49.516;8.286;2023-04-16T09:12:48;100773.81;;;9.93;92.34
62849;BME280;48941;49.516;8.286;2023-04-16T09:15:16;100791.16;;;9.86;93.40
62849;BME280;48941;49.516;8.286;2023-04-16T09:17:47;100788.72;;;9.83;93.22
62849;BME280;48941;49.516;8.286;2023-04-16T09:20:16;100790.56;;;9.83;94.64
62849;BME280;48941;49.516;8.286;2023-04-16T09:22:44;100788.50;;;9.86;94.37
62849;BME280;48941;49.516;8.286;2023-04-16T09:25:12;100795.22;;;9.79;94.85
62849;BME280;48941;49.516;8.286;2023-04-16T09:27:40;100794.25;;;9.80;95.32
62849;BME280;48941;49.516;8.286;2023-04-16T09:30:23;100794.16;;;9.82;95.61
62849;BME280;48941;49.516;8.286;2023-04-16T09:32:52;100794.25;;;9.80;95.96
62849;BME280;48941;49.516;8.286;2023-04-16T09:35:45;100797.78;;;9.81;96.54
62849;BME280;48941;49.516;8.286;2023-04-16T09:38:13;100802.69;;;9.87;96.72
62849;BME280;48941;49.516;8.286;2023-04-16T09:40:41;100800.13;;;9.85;96.73
62849;BME280;48941;49.516;8.286;2023-04-16T09:43:11;100803.53;;;9.87;97.05
62849;BME280;48941;49.516;8.286;2023-04-16T09:45:47;100803.28;;;9.90;97.51
62849;BME280;48941;49.516;8.286;2023-04-16T09:48:27;100802.00;;;9.96;96.70
62849;BME280;48941;49.516;8.286;2023-04-16T09:50:58;100799.03;;;9.88;96.41
62849;BME280;48941;49.516;8.286;2023-04-16T09:53:28;100804.78;;;9.82;97.14
62849;BME280;48941;49.516;8.286;2023-04-16T09:55:56;100805.00;;;9.91;96.69
62849;BME280;48941;49.516;8.286;2023-04-16T09:58:24;100806.06;;;9.89;96.33
62849;BME280;48941;49.516;8.286;2023-04-16T10:00:54;100802.44;;;9.90;96.33
62849;BME280;48941;49.516;8.286;2023-04-16T10:03:28;100811.16;;;9.92;94.95
62849;BME280;48941;49.516;8.286;2023-04-16T10:06:00;100813.41;;;9.85;96.11
62849;BME280;48941;49.516;8.286;2023-04-16T10:08:28;100814.25;;;9.86;96.74
62849;BME280;48941;49.516;8.286;2023-04-16T10:10:56;100818.00;;;9.83;97.09
62849;BME280;48941;49.516;8.286;2023-04-16T10:13:24;100811.94;;;9.81;96.46
62849;BME280;48941;49.516;8.286;2023-04-16T10:15:54;100813.94;;;9.77;96.94
62849;BME280;48941;49.516;8.286;2023-04-16T10:18:23;100812.78;;;9.82;97.00
62849;BME280;48941;49.516;8.286;2023-04-16T10:20:51;100821.00;;;9.79;96.77
62849;BME280;48941;49.516;8.286;2023-04-16T10:23:20;100818.31;;;9.79;96.14
62849;BME280;48941;49.516;8.286;2023-04-16T10:25:49;100818.94;;;9.82;95.92
62849;BME280;48941;49.516;8.286;2023-04-16T10:28:17;100820.44;;;9.86;95.40
62849;BME280;48941;49.516;8.286;2023-04-16T10:30:48;100819.88;;;9.94;95.89
62849;BME280;48941;49.516;8.286;2023-04-16T10:33:20;100821.31;;;9.87;95.77
62849;BME280;48941;49.516;8.286;2023-04-16T10:35:48;100822.56;;;9.94;95.12
62849;BME280;48941;49.516;8.286;2023-04-16T10:38:33;100821.81;;;9.92;94.61
62849;BME280;48941;49.516;8.286;2023-04-16T10:41:02;100821.38;;;9.98;94.77
62849;BME280;48941;49.516;8.286;2023-04-16T10:43:33;100825.94;;;9.96;94.02
62849;BME280;48941;49.516;8.286;2023-04-16T10:46:18;100822.44;;;9.95;94.30
62849;BME280;48941;49.516;8.286;2023-04-16T10:48:47;100826.69;;;9.98;94.91
62849;BME280;48941;49.516;8.286;2023-04-16T10:51:24;100824.91;;;9.99;95.03
62849;BME280;48941;49.516;8.286;2023-04-16T10:53:55;100829.34;;;9.98;94.43
62849;BME280;48941;49.516;8.286;2023-04-16T10:56:23;100829.06;;;10.03;94.83
62849;BME280;48941;49.516;8.286;2023-04-16T10:58:52;100827.13;;;10.05;94.20
62849;BME280;48941;49.516;8.286;2023-04-16T11:01:29;100828.19;;;10.02;95.05
62849;BME280;48941;49.516;8.286;2023-04-16T11:03:59;100820.19;;;10.02;95.23
62849;BME280;48941;49.516;8.286;2023-04-16T11:06:28;100818.41;;;10.03;94.71
62849;BME280;48941;49.516;8.286;2023-04-16T11:08:58;100826.25;;;10.04;94.19
62849;BME280;48941;49.516;8.286;2023-04-16T11:11:37;100833.63;;;10.01;94.33
62849;BME280;48941;49.516;8.286;2023-04-16T11:14:05;100827.97;;;10.05;94.16
62849;BME280;48941;49.516;8.286;2023-04-16T11:16:39;100829.06;;;10.03;94.03
62849;BME280;48941;49.516;8.286;2023-04-16T11:19:14;100825.31;;;10.05;93.91
62849;BME280;48941;49.516;8.286;2023-04-16T11:21:43;100823.50;;;10.06;94.01
62849;BME280;48941;49.516;8.286;2023-04-16T11:24:12;100828.28;;;10.13;94.39
62849;BME280;48941;49.516;8.286;2023-04-16T11:26:40;100836.47;;;10.10;93.73
62849;BME280;48941;49.516;8.286;2023-04-16T11:29:12;100831.47;;;10.06;93.50
62849;BME280;48941;49.516;8.286;2023-04-16T11:31:40;100839.03;;;10.12;93.34
62849;BME280;48941;49.516;8.286;2023-04-16T11:34:08;100828.19;;;10.15;93.70
62849;BME280;48941;49.516;8.286;2023-04-16T11:36:42;100822.63;;;10.18;92.33
62849;BME280;48941;49.516;8.286;2023-04-16T11:39:10;100826.66;;;10.24;93.07
62849;BME280;48941;49.516;8.286;2023-04-16T11:41:42;100831.97;;;10.24;92.75
62849;BME280;48941;49.516;8.286;2023-04-16T11:44:21;100830.28;;;10.23;93.07
62849;BME280;48941;49.516;8.286;2023-04-16T11:46:49;100830.28;;;10.23;92.51
62849;BME280;48941;49.516;8.286;2023-04-16T11:49:26;100826.66;;;10.24;92.53
62849;BME280;48941;49.516;8.286;2023-04-16T11:51:53;100822.31;;;10.23;93.59
62849;BME280;48941;49.516;8.286;2023-04-16T11:54:23;100816.97;;;10.23;93.46
62849;BME280;48941;49.516;8.286;2023-04-16T11:57:04;100830.28;;;10.35;92.99
62849;BME280;48941;49.516;8.286;2023-04-16T11:59:32;100829.53;;;10.33;92.67
62849;BME280;48941;49.516;8.286;2023-04-16T12:02:00;100825.47;;;10.41;92.28
62849;BME280;48941;49.516;8.286;2023-04-16T12:04:27;100833.34;;;10.42;93.00
62849;BME280;48941;49.516;8.286;2023-04-16T12:07:09;100830.47;;;10.45;92.87
62849;BME280;48941;49.516;8.286;2023-04-16T12:09:39;100832.56;;;10.53;92.59
62849;BME280;48941;49.516;8.286;2023-04-16T12:12:26;100833.22;;;10.56;91.22
62849;BME280;48941;49.516;8.286;2023-04-16T12:14:57;100831.78;;;10.64;91.04
62849;BME280;48941;49.516;8.286;2023-04-16T12:17:28;100832.41;;;10.67;91.70
62849;BME280;48941;49.516;8.286;2023-04-16T12:19:58;100827.47;;;10.74;91.03
62849;BME280;48941;49.516;8.286;2023-04-16T12:22:27;100828.44;;;10.73;90.28
62849;BME280;48941;49.516;8.286;2023-04-16T12:24:57;100834.78;;;10.83;89.37
62849;BME280;48941;49.516;8.286;2023-04-16T12:27:39;100828.72;;;10.81;89.69
62849;BME280;48941;49.516;8.286;2023-04-16T12:30:10;100827.63;;;10.84;90.99
62849;BME280;48941;49.516;8.286;2023-04-16T12:32:42;100830.25;;;10.96;89.61
62849;BME280;48941;49.516;8.286;2023-04-16T12:35:11;100827.72;;;11.06;88.80
62849;BME280;48941;49.516;8.286;2023-04-16T12:37:39;100830.91;;;11.11;89.17
62849;BME280;48941;49.516;8.286;2023-04-16T12:40:09;100831.59;;;11.26;88.24
62849;BME280;48941;49.516;8.286;2023-04-16T12:42:38;100827.94;;;11.27;88.81
62849;BME280;48941;49.516;8.286;2023-04-16T12:45:07;100841.41;;;11.37;87.69
62849;BME280;48941;49.516;8.286;2023-04-16T12:47:34;100841.63;;;11.34;86.96
62849;BME280;48941;49.516;8.286;2023-04-16T12:50:03;100844.31;;;11.34;87.98
62849;BME280;48941;49.516;8.286;2023-04-16T12:52:31;100844.09;;;11.37;86.77
62849;BME280;48941;49.516;8.286;2023-04-16T12:55:01;100841.63;;;11.34;85.91
62849;BME280;48941;49.516;8.286;2023-04-16T12:57:30;100840.78;;;11.33;85.82
62849;BME280;48941;49.516;8.286;2023-04-16T13:00:03;100838.88;;;11.35;85.78
62849;BME280;48941;49.516;8.286;2023-04-16T13:02:31;100843.25;;;11.36;85.46
62849;BME280;48941;49.516;8.286;2023-04-16T13:04:59;100842.00;;;11.29;85.45
62849;BME280;48941;49.516;8.286;2023-04-16T13:07:27;100837.50;;;11.30;85.65